Terminal Aerodrome Forecast
Issued by NWS

Home | Current Version | Previous Version | Text Only | Print | Product List | Glossary On
Versions: 1 2 3 4 5 6 7 8 9 10 11 12 13 14 15 16 17
000
FTUS41 KPHI 281739
TAFMIV
TAF
KMIV 281739Z 2818/2918 10013KT P6SM VCSH BKN035 OVC110
      TEMPO 2819/2823 4SM SHRA BKN025
     FM282300 08011G19KT 6SM -RADZ OVC018
     FM290200 07011G19KT 4SM -RADZ BR OVC007
     FM291400 07013G23KT P6SM VCSH OVC015=

USA.gov is the U.S. government's official web portal to all federal, state and local government web resources and services.